GBPAF EGBP-EGBP
Flight info
| Callsign | GBPAF |
|---|---|
| Flight time | 0h 26m |
| Altitude | 3000 |
| Route | LOCAL FLIGHT FROM KEMBLE TO KEMBLE |
| Aircraft | PA28/L-ICAO/L |
Departure
| Time | 2026-05-06 09:01 |
|---|---|
| Airport | Cotswold Airport (EGBP) |
Arrival
| Time | 2026-05-06 09:27 |
|---|---|
| Airport | Cotswold Airport (EGBP) |
| Time | Latitude | Longitude | Altitude | Speed | Heading |
|---|---|---|---|---|---|
| 2026-05-06 08:43 | 51.67053 | -2.05325 | 430 ft | 0 kts | 68° |
| 2026-05-06 08:54 | 51.67055 | -2.05301 | 428 ft | 6 kts | 119° |
| 2026-05-06 08:54 | 51.67009 | -2.05222 | 430 ft | 13 kts | 123° |
| 2026-05-06 08:55 | 51.66992 | -2.05174 | 427 ft | 0 kts | 115° |
| 2026-05-06 08:55 | 51.66983 | -2.05118 | 429 ft | 11 kts | 98° |
| 2026-05-06 08:55 | 51.66964 | -2.04922 | 421 ft | 19 kts | 116° |
| 2026-05-06 08:55 | 51.66843 | -2.04843 | 417 ft | 19 kts | 176° |
| 2026-05-06 08:56 | 51.66729 | -2.04918 | 422 ft | 18 kts | 219° |
| 2026-05-06 08:56 | 51.66628 | -2.05039 | 416 ft | 19 kts | 210° |
| 2026-05-06 08:56 | 51.66514 | -2.05150 | 417 ft | 18 kts | 218° |
| 2026-05-06 08:56 | 51.66521 | -2.05314 | 424 ft | 15 kts | 299° |
| 2026-05-06 08:57 | 51.66571 | -2.05450 | 426 ft | 13 kts | 301° |
| 2026-05-06 08:57 | 51.66613 | -2.05567 | 426 ft | 12 kts | 299° |
| 2026-05-06 08:57 | 51.66659 | -2.05685 | 429 ft | 13 kts | 298° |
| 2026-05-06 08:57 | 51.66700 | -2.05810 | 427 ft | 11 kts | 312° |
| 2026-05-06 08:58 | 51.66727 | -2.05815 | 423 ft | 0 kts | 37° |
| 2026-05-06 08:59 | 51.66737 | -2.05822 | 428 ft | 7 kts | 300° |
| 2026-05-06 09:00 | 51.66767 | -2.05898 | 430 ft | 8 kts | 358° |
| 2026-05-06 09:00 | 51.66793 | -2.05834 | 425 ft | 8 kts | 78° |
| 2026-05-06 09:00 | 51.66832 | -2.05473 | 419 ft | 59 kts | 78° |
| 2026-05-06 09:00 | 51.66891 | -2.04715 | 624 ft | 72 kts | 79° |
| 2026-05-06 09:01 | 51.66951 | -2.03882 | 862 ft | 77 kts | 78° |
| 2026-05-06 09:01 | 51.66812 | -2.03026 | 1139 ft | 89 kts | 126° |
| 2026-05-06 09:01 | 51.66251 | -2.02449 | 1337 ft | 102 kts | 141° |
| 2026-05-06 09:01 | 51.65678 | -2.01729 | 1556 ft | 102 kts | 132° |
| 2026-05-06 09:02 | 51.65146 | -2.01027 | 1907 ft | 98 kts | 135° |
| 2026-05-06 09:02 | 51.64614 | -2.00381 | 2236 ft | 93 kts | 136° |
| 2026-05-06 09:02 | 51.64097 | -1.99809 | 2523 ft | 91 kts | 137° |
| 2026-05-06 09:02 | 51.63589 | -1.99200 | 2790 ft | 92 kts | 134° |
| 2026-05-06 09:03 | 51.63076 | -1.98538 | 2996 ft | 96 kts | 133° |
| 2026-05-06 09:03 | 51.62546 | -1.97815 | 3156 ft | 99 kts | 131° |
| 2026-05-06 09:03 | 51.62011 | -1.97063 | 3219 ft | 109 kts | 129° |
| 2026-05-06 09:03 | 51.61481 | -1.96239 | 3270 ft | 99 kts | 125° |
| 2026-05-06 09:04 | 51.61036 | -1.95388 | 3163 ft | 100 kts | 120° |
| 2026-05-06 09:04 | 51.60572 | -1.94539 | 3193 ft | 102 kts | 130° |
| 2026-05-06 09:04 | 51.60039 | -1.93788 | 3162 ft | 104 kts | 131° |
| 2026-05-06 09:04 | 51.59502 | -1.93018 | 3187 ft | 101 kts | 130° |
| 2026-05-06 09:05 | 51.58923 | -1.92229 | 2987 ft | 112 kts | 133° |
| 2026-05-06 09:05 | 51.58341 | -1.91464 | 2937 ft | 105 kts | 133° |
| 2026-05-06 09:05 | 51.57779 | -1.90745 | 2923 ft | 103 kts | 133° |
| 2026-05-06 09:05 | 51.57245 | -1.90037 | 2952 ft | 97 kts | 130° |
| 2026-05-06 09:06 | 51.56734 | -1.89331 | 2994 ft | 94 kts | 130° |
| 2026-05-06 09:06 | 51.56235 | -1.88661 | 3065 ft | 94 kts | 132° |
| 2026-05-06 09:06 | 51.55715 | -1.87938 | 3126 ft | 104 kts | 128° |
| 2026-05-06 09:06 | 51.55158 | -1.87105 | 3141 ft | 112 kts | 130° |
| 2026-05-06 09:07 | 51.54601 | -1.86260 | 3129 ft | 109 kts | 129° |
| 2026-05-06 09:07 | 51.54047 | -1.85407 | 2992 ft | 110 kts | 129° |
| 2026-05-06 09:07 | 51.53501 | -1.84572 | 2880 ft | 106 kts | 128° |
| 2026-05-06 09:07 | 51.52971 | -1.83776 | 2857 ft | 104 kts | 129° |
| 2026-05-06 09:08 | 51.52436 | -1.82947 | 2834 ft | 105 kts | 128° |
| 2026-05-06 09:08 | 51.51910 | -1.82159 | 2868 ft | 104 kts | 129° |
| 2026-05-06 09:08 | 51.51358 | -1.81397 | 2865 ft | 105 kts | 131° |
| 2026-05-06 09:08 | 51.50817 | -1.80645 | 2902 ft | 101 kts | 131° |
| 2026-05-06 09:09 | 51.50320 | -1.79886 | 2878 ft | 93 kts | 95° |
| 2026-05-06 09:09 | 51.50710 | -1.79617 | 3020 ft | 95 kts | 319° |
| 2026-05-06 09:09 | 51.50616 | -1.80585 | 3133 ft | 102 kts | 221° |
| 2026-05-06 09:09 | 51.50287 | -1.81543 | 3074 ft | 102 kts | 249° |
| 2026-05-06 09:10 | 51.50009 | -1.82664 | 3009 ft | 114 kts | 253° |
| 2026-05-06 09:10 | 51.49728 | -1.83864 | 3031 ft | 113 kts | 252° |
| 2026-05-06 09:10 | 51.49430 | -1.85035 | 3046 ft | 114 kts | 251° |
| 2026-05-06 09:10 | 51.49130 | -1.86193 | 3119 ft | 110 kts | 248° |
| 2026-05-06 09:11 | 51.48808 | -1.87336 | 3086 ft | 113 kts | 248° |
| 2026-05-06 09:11 | 51.48461 | -1.88489 | 3067 ft | 116 kts | 249° |
| 2026-05-06 09:11 | 51.48108 | -1.89670 | 2988 ft | 123 kts | 246° |
| 2026-05-06 09:11 | 51.47735 | -1.90913 | 2939 ft | 122 kts | 247° |
| 2026-05-06 09:12 | 51.47384 | -1.92142 | 2912 ft | 121 kts | 248° |
| 2026-05-06 09:12 | 51.47040 | -1.93385 | 2824 ft | 123 kts | 249° |
| 2026-05-06 09:12 | 51.46710 | -1.94635 | 2781 ft | 122 kts | 250° |
| 2026-05-06 09:12 | 51.46384 | -1.95877 | 2758 ft | 121 kts | 249° |
| 2026-05-06 09:13 | 51.46072 | -1.97097 | 2794 ft | 116 kts | 248° |
| 2026-05-06 09:13 | 51.45700 | -1.98298 | 2700 ft | 123 kts | 243° |
| 2026-05-06 09:13 | 51.45319 | -1.99520 | 2633 ft | 124 kts | 257° |
| 2026-05-06 09:13 | 51.45329 | -2.00868 | 2571 ft | 121 kts | 282° |
| 2026-05-06 09:14 | 51.45418 | -2.02174 | 2618 ft | 115 kts | 278° |
| 2026-05-06 09:14 | 51.45624 | -2.03239 | 2980 ft | 84 kts | 299° |
| 2026-05-06 09:14 | 51.45819 | -2.04248 | 2982 ft | 109 kts | 282° |
| 2026-05-06 09:14 | 51.45818 | -2.05529 | 3023 ft | 114 kts | 271° |
| 2026-05-06 09:15 | 51.45772 | -2.06816 | 2957 ft | 116 kts | 270° |
| 2026-05-06 09:15 | 51.45728 | -2.08074 | 3001 ft | 112 kts | 270° |
| 2026-05-06 09:15 | 51.45587 | -2.09300 | 3072 ft | 112 kts | 245° |
| 2026-05-06 09:15 | 51.45257 | -2.10324 | 3494 ft | 7 kts | 52° |
| 2026-05-06 09:16 | 51.45117 | -2.10789 | 2412 ft | 149 kts | 258° |
| 2026-05-06 09:16 | 51.45361 | -2.11793 | 2775 ft | 90 kts | 329° |
| 2026-05-06 09:16 | 51.45981 | -2.12053 | 2839 ft | 96 kts | 3° |
| 2026-05-06 09:16 | 51.46654 | -2.11990 | 2969 ft | 95 kts | 9° |
| 2026-05-06 09:17 | 51.47325 | -2.11885 | 3061 ft | 100 kts | 9° |
| 2026-05-06 09:17 | 51.48030 | -2.11757 | 3157 ft | 104 kts | 9° |
| 2026-05-06 09:17 | 51.48732 | -2.11676 | 3295 ft | 99 kts | 5° |
| 2026-05-06 09:17 | 51.49443 | -2.11679 | 3246 ft | 106 kts | 3° |
| 2026-05-06 09:18 | 51.50169 | -2.11686 | 3289 ft | 101 kts | 2° |
| 2026-05-06 09:18 | 51.50878 | -2.11624 | 3213 ft | 106 kts | 9° |
| 2026-05-06 09:18 | 51.51591 | -2.11478 | 3226 ft | 102 kts | 11° |
| 2026-05-06 09:18 | 51.52291 | -2.11281 | 3197 ft | 102 kts | 13° |
| 2026-05-06 09:19 | 51.52993 | -2.11114 | 3138 ft | 104 kts | 10° |
| 2026-05-06 09:19 | 51.53694 | -2.10990 | 3079 ft | 90 kts | 8° |
| 2026-05-06 09:19 | 51.54213 | -2.10928 | 2993 ft | 69 kts | 7° |
| 2026-05-06 09:19 | 51.54698 | -2.10983 | 2774 ft | 75 kts | 340° |
| 2026-05-06 09:20 | 51.54949 | -2.11773 | 2560 ft | 91 kts | 272° |
| 2026-05-06 09:20 | 51.54764 | -2.12724 | 2422 ft | 88 kts | 242° |
| 2026-05-06 09:20 | 51.54538 | -2.13636 | 2154 ft | 90 kts | 263° |
| 2026-05-06 09:20 | 51.54436 | -2.14637 | 1889 ft | 90 kts | 275° |
| 2026-05-06 09:21 | 51.54684 | -2.15488 | 1577 ft | 87 kts | 328° |
| 2026-05-06 09:21 | 51.55196 | -2.15575 | 1388 ft | 70 kts | 22° |
| 2026-05-06 09:21 | 51.55637 | -2.15255 | 1138 ft | 67 kts | 25° |
| 2026-05-06 09:21 | 51.56048 | -2.14851 | 784 ft | 72 kts | 40° |
| 2026-05-06 09:22 | 51.56377 | -2.14219 | 408 ft | 74 kts | 53° |
| 2026-05-06 09:22 | 51.56625 | -2.13615 | 331 ft | 60 kts | 51° |
| 2026-05-06 09:22 | 51.56885 | -2.13071 | 537 ft | 62 kts | 39° |
| 2026-05-06 09:22 | 51.57292 | -2.12843 | 789 ft | 62 kts | 17° |
| 2026-05-06 09:23 | 51.57769 | -2.12737 | 931 ft | 81 kts | 10° |
| 2026-05-06 09:23 | 51.58372 | -2.12671 | 1153 ft | 92 kts | 5° |
| 2026-05-06 09:23 | 51.59012 | -2.12746 | 1441 ft | 94 kts | 355° |
| 2026-05-06 09:23 | 51.59644 | -2.12745 | 1777 ft | 90 kts | 18° |
| 2026-05-06 09:24 | 51.60151 | -2.12257 | 2142 ft | 86 kts | 40° |
| 2026-05-06 09:24 | 51.60685 | -2.11664 | 2253 ft | 103 kts | 31° |
| 2026-05-06 09:24 | 51.61327 | -2.11156 | 2389 ft | 103 kts | 26° |
| 2026-05-06 09:24 | 51.61989 | -2.10628 | 2181 ft | 108 kts | 28° |
| 2026-05-06 09:25 | 51.62670 | -2.10101 | 2043 ft | 108 kts | 27° |
| 2026-05-06 09:25 | 51.63345 | -2.09695 | 1931 ft | 94 kts | 19° |
| 2026-05-06 09:25 | 51.63907 | -2.09354 | 1758 ft | 81 kts | 25° |
| 2026-05-06 09:25 | 51.64414 | -2.09026 | 1586 ft | 78 kts | 16° |
| 2026-05-06 09:26 | 51.64936 | -2.09040 | 1462 ft | 70 kts | 358° |
| 2026-05-06 09:26 | 51.65419 | -2.09131 | 1293 ft | 72 kts | 358° |
| 2026-05-06 09:26 | 51.65915 | -2.09214 | 1073 ft | 70 kts | 17° |
| 2026-05-06 09:26 | 51.66336 | -2.08983 | 904 ft | 68 kts | 54° |
| 2026-05-06 09:27 | 51.66520 | -2.08296 | 755 ft | 63 kts | 69° |
| 2026-05-06 09:27 | 51.66603 | -2.07603 | 621 ft | 63 kts | 72° |
| 2026-05-06 09:27 | 51.66679 | -2.06913 | 462 ft | 61 kts | 75° |
| 2026-05-06 09:27 | 51.66734 | -2.06333 | 429 ft | 43 kts | 77° |
| 2026-05-06 09:28 | 51.66771 | -2.06014 | 431 ft | 5 kts | 91° |
| 2026-05-06 09:28 | 51.66780 | -2.06005 | 426 ft | 0 kts | 355° |